This is the latest recevied weather packets stored in our database for station/object XE1GMR. If no packets are shown the sender has not sent any weather packets the latest 1 day(s).
| Time | Temp. | Humidity | Pressure | Rain* | Wind** | Luminosity | Snow |
|---|---|---|---|---|---|---|---|
| 1778001814 | 26.67° C | 45% | 1123 hPa | 0 mm | 1.79 m/s, 202° | 755 W/m² | - |
| 1778001513 | 26.11° C | 47% | 1123 hPa | 0 mm | 0.89 m/s, 235° | 760 W/m² | - |
| 1778001210 | 26.67° C | 44% | 1122.9 hPa | 0 mm | 0.45 m/s, 250° | 767 W/m² | - |
| 1778000907 | 26.11° C | 47% | 1122.7 hPa | 0 mm | 0.89 m/s, 198° | 740 W/m² | - |
| 1778000603 | 25.56° C | 48% | 1123.2 hPa | 0 mm | 1.79 m/s, 208° | 730 W/m² | - |
| 1778000299 | 25.56° C | 47% | 1123.1 hPa | 0 mm | 0.89 m/s, 229° | 737 W/m² | - |
| 1777999995 | 25° C | 48% | 1122.9 hPa | 0 mm | 0.45 m/s, 316° | 766 W/m² | - |
| 1777999690 | 25.56° C | 47% | 1123.2 hPa | 0 mm | 1.79 m/s, 181° | 770 W/m² | - |
| 1777999388 | 25.56° C | 48% | 1123 hPa | 0 mm | 0 m/s | 760 W/m² | - |
| 1777999086 | 26.11° C | 46% | 1123.3 hPa | 0 mm | 0.89 m/s, 194° | 770 W/m² | - |
| 1777998784 | 26.11° C | 47% | 1123.4 hPa | 0 mm | 0.89 m/s, 291° | 767 W/m² | - |
| 1777998482 | 26.11° C | 48% | 1123.2 hPa | 0 mm | 0.45 m/s, 281° | 765 W/m² | - |
| 1777998178 | 25° C | 50% | 1123.4 hPa | 0 mm | 0.45 m/s, 335° | 776 W/m² | - |
| 1777997875 | 25.56° C | 50% | 1123.4 hPa | 0 mm | 0.89 m/s, 92° | 755 W/m² | - |
| 1777997573 | 25° C | 49% | 1123.5 hPa | 0 mm | 0.45 m/s, 292° | 744 W/m² | - |
| 1777997270 | 25° C | 51% | 1123.6 hPa | 0 mm | 0.45 m/s, 241° | 754 W/m² | - |
| 1777996968 | 25° C | 52% | 1123.4 hPa | 0 mm | 1.34 m/s, 211° | 756 W/m² | - |
| 1777996664 | 24.44° C | 53% | 1123.4 hPa | 0 mm | 0 m/s | 741 W/m² | - |
| 1777996360 | 24.44° C | 52% | 1123.6 hPa | 0 mm | 0.45 m/s, 272° | 736 W/m² | - |
| 1777996056 | 25° C | 51% | 1123.7 hPa | 0 mm | 0.45 m/s, 251° | 734 W/m² | - |
| 1777995753 | 23.89° C | 53% | 1123.6 hPa | 0 mm | 0 m/s | 736 W/m² | - |
| 1777995449 | 23.89° C | 54% | 1123.5 hPa | 0 mm | 0.89 m/s, 217° | 706 W/m² | - |
| 1777995147 | 24.44° C | 52% | 1123.6 hPa | 0 mm | 0.45 m/s, 249° | 680 W/m² | - |
| 1777994844 | 24.44° C | 51% | 1123.5 hPa | 0 mm | 0.45 m/s, 259° | 657 W/m² | - |
| 1777994540 | 23.33° C | 54% | 1123.7 hPa | 0 mm | 0 m/s | 615 W/m² | - |
* Rain latest hour (hover to see other rain measurements)
** Current wind speed in m/s (hover to see current wind gust speed)